Time;durP1;ratioP1;P1;durP2;ratioP2;P2;SDS_P1;SDS_P2;PMS_P1;PMS_P2;Temp;Humidity;BMP_temperature;BMP_pressure;BME280_temperature;BME280_humidity;BME280_pressure;Samples;Min_cycle;Max_cycle;Signal;HPM_P1;HPM_P2
2023/08/31 00:00:34;;;;;;;4.47;1.90;;;;;;;;;;5090854;28;20071;-65
2023/08/31 00:03:00;;;;;;;4.25;1.63;;;;;;;;;;5090339;28;20040;-65
2023/08/31 00:05:28;;;;;;;2.47;1.73;;;;;;;;;;5077625;28;20040;-65
2023/08/31 00:07:55;;;;;;;1.90;1.42;;;;;;;;;;5090229;28;20086;-65
2023/08/31 00:10:23;;;;;;;3.95;1.60;;;;;;;;;;5090341;28;20043;-65
2023/08/31 00:12:49;;;;;;;5.10;1.92;;;;;;;;;;5080195;28;20135;-65
2023/08/31 00:15:16;;;;;;;3.60;2.35;;;;;;;;;;5071678;28;20538;-65
2023/08/31 00:17:42;;;;;;;3.00;2.40;;;;;;;;;;5070448;28;20447;-65
2023/08/31 00:20:11;;;;;;;4.00;1.90;;;;;;;;;;5070794;28;20040;-64
2023/08/31 00:22:38;;;;;;;5.18;2.08;;;;;;;;;;5085006;28;20056;-65
2023/08/31 00:25:08;;;;;;;4.97;2.72;;;;;;;;;;5089970;28;20037;-65
2023/08/31 00:27:36;;;;;;;5.05;2.42;;;;;;;;;;5090107;28;20043;-65
2023/08/31 00:30:11;;;;;;;4.20;2.60;;;;;;;;;;5088146;28;20044;-64
2023/08/31 00:32:39;;;;;;;4.03;2.72;;;;;;;;;;5089085;28;20117;-65
2023/08/31 00:35:05;;;;;;;5.53;3.08;;;;;;;;;;5090239;28;20048;-65
2023/08/31 00:37:32;;;;;;;3.30;2.78;;;;;;;;;;5090391;28;20480;-65
2023/08/31 00:39:58;;;;;;;5.90;3.00;;;;;;;;;;5090530;28;20072;-64
2023/08/31 00:42:25;;;;;;;5.63;3.60;;;;;;;;;;5090028;28;20138;-64
2023/08/31 00:44:52;;;;;;;6.05;4.00;;;;;;;;;;5089945;28;20071;-65
2023/08/31 00:47:19;;;;;;;4.75;3.63;;;;;;;;;;5090135;28;20094;-64
2023/08/31 00:49:45;;;;;;;6.93;4.88;;;;;;;;;;5090151;28;20085;-64
2023/08/31 00:52:12;;;;;;;6.93;4.65;;;;;;;;;;5089250;28;20100;-64
2023/08/31 00:54:39;;;;;;;8.43;5.43;;;;;;;;;;5089852;28;20042;-65
2023/08/31 00:57:05;;;;;;;7.20;5.60;;;;;;;;;;5090139;28;20043;-65
2023/08/31 00:59:31;;;;;;;6.63;5.05;;;;;;;;;;5089783;28;20082;-64
2023/08/31 01:01:58;;;;;;;7.15;5.30;;;;;;;;;;5077791;28;20460;-65
2023/08/31 01:04:41;;;;;;;6.22;4.80;;;;;;;;;;5089364;28;20079;-65
2023/08/31 01:07:27;;;;;;;13.25;6.07;;;;;;;;;;5070465;28;20140;-64
2023/08/31 01:09:54;;;;;;;7.40;5.00;;;;;;;;;;5074048;28;20508;-65
2023/08/31 01:12:35;;;;;;;6.63;4.25;;;;;;;;;;5085593;28;20487;-64
2023/08/31 01:15:07;;;;;;;7.07;4.82;;;;;;;;;;5070299;28;20044;-65
2023/08/31 01:17:37;;;;;;;6.03;4.10;;;;;;;;;;5088490;28;20044;-65
2023/08/31 01:20:06;;;;;;;5.32;3.72;;;;;;;;;;5089999;28;20139;-65
2023/08/31 01:22:40;;;;;;;4.53;3.47;;;;;;;;;;5089789;28;20047;-64
2023/08/31 01:25:09;;;;;;;7.38;3.40;;;;;;;;;;5089850;28;20078;-64
2023/08/31 01:27:36;;;;;;;4.63;2.95;;;;;;;;;;5089520;28;20044;-65
2023/08/31 01:30:03;;;;;;;5.68;2.67;;;;;;;;;;5089652;28;20740;-67
2023/08/31 01:32:30;;;;;;;3.65;2.65;;;;;;;;;;5090918;28;20056;-65
2023/08/31 01:34:57;;;;;;;5.63;3.65;;;;;;;;;;5089083;28;20047;-65
2023/08/31 01:37:30;;;;;;;5.90;2.85;;;;;;;;;;5089103;28;20046;-65
2023/08/31 01:40:00;;;;;;;5.28;2.53;;;;;;;;;;5085518;28;20069;-65
2023/08/31 01:42:27;;;;;;;4.65;2.67;;;;;;;;;;5088121;28;20063;-65
2023/08/31 01:44:55;;;;;;;3.38;2.25;;;;;;;;;;5089624;28;20040;-65
2023/08/31 01:47:22;;;;;;;2.75;1.67;;;;;;;;;;5089257;28;20043;-66
2023/08/31 01:49:50;;;;;;;3.50;2.03;;;;;;;;;;5071110;28;20131;-66
2023/08/31 01:52:16;;;;;;;4.13;2.08;;;;;;;;;;5088600;28;20129;-65
2023/08/31 01:54:43;;;;;;;5.63;1.65;;;;;;;;;;5089037;28;20116;-66
2023/08/31 01:57:09;;;;;;;4.53;1.73;;;;;;;;;;5089535;28;20036;-67
2023/08/31 01:59:36;;;;;;;3.10;2.03;;;;;;;;;;5089875;28;20438;-67
2023/08/31 02:02:03;;;;;;;2.40;1.75;;;;;;;;;;5088633;28;20120;-65
2023/08/31 02:04:30;;;;;;;3.95;2.67;;;;;;;;;;5089731;28;20047;-71
2023/08/31 02:06:57;;;;;;;5.95;2.53;;;;;;;;;;5089465;28;20068;-66
2023/08/31 02:09:23;;;;;;;3.63;2.67;;;;;;;;;;5089025;28;20036;-66
2023/08/31 02:11:50;;;;;;;4.25;3.22;;;;;;;;;;5088509;28;20043;-65
2023/08/31 02:14:16;;;;;;;5.10;3.22;;;;;;;;;;5088603;28;20075;-66
2023/08/31 02:16:43;;;;;;;4.47;3.17;;;;;;;;;;5088761;28;20380;-65
2023/08/31 02:19:09;;;;;;;4.95;3.08;;;;;;;;;;5070288;28;20560;-66
2023/08/31 02:21:35;;;;;;;6.15;3.00;;;;;;;;;;5088807;28;20043;-66
2023/08/31 02:24:03;;;;;;;5.25;2.95;;;;;;;;;;5089204;28;20089;-66
2023/08/31 02:26:29;;;;;;;5.25;3.22;;;;;;;;;;5088053;28;20044;-66
2023/08/31 02:28:55;;;;;;;6.63;3.17;;;;;;;;;;5087488;28;20127;-65
2023/08/31 02:31:22;;;;;;;5.30;3.50;;;;;;;;;;5088727;28;20137;-66
2023/08/31 02:33:49;;;;;;;4.43;3.20;;;;;;;;;;5088406;28;20127;-67
2023/08/31 02:36:16;;;;;;;4.97;2.67;;;;;;;;;;5088483;28;20052;-66
2023/08/31 02:38:42;;;;;;;4.70;3.22;;;;;;;;;;5088410;28;20089;-66
2023/08/31 02:41:09;;;;;;;4.32;2.90;;;;;;;;;;5088575;28;20089;-66
2023/08/31 02:43:35;;;;;;;5.38;3.35;;;;;;;;;;5088239;28;20136;-65
2023/08/31 02:46:02;;;;;;;5.75;2.85;;;;;;;;;;5095446;28;20067;-65
2023/08/31 02:48:29;;;;;;;4.88;2.67;;;;;;;;;;5100706;28;20608;-66
2023/08/31 02:50:57;;;;;;;4.95;2.95;;;;;;;;;;5077465;28;20045;-65
2023/08/31 02:53:24;;;;;;;4.03;2.67;;;;;;;;;;5077339;28;20503;-64
2023/08/31 02:55:50;;;;;;;5.55;2.70;;;;;;;;;;5074794;28;20063;-66
2023/08/31 02:58:17;;;;;;;4.75;3.58;;;;;;;;;;5088020;28;20059;-65
2023/08/31 03:00:45;;;;;;;4.28;2.95;;;;;;;;;;5087196;28;20052;-65
2023/08/31 03:03:12;;;;;;;3.28;2.40;;;;;;;;;;5087772;28;20040;-65
2023/08/31 03:05:39;;;;;;;4.53;3.03;;;;;;;;;;5087816;28;20138;-65
2023/08/31 03:08:05;;;;;;;4.53;2.75;;;;;;;;;;5087963;28;20044;-65
2023/08/31 03:10:32;;;;;;;4.10;2.33;;;;;;;;;;5087817;28;20044;-65
2023/08/31 03:12:58;;;;;;;5.10;3.13;;;;;;;;;;5087831;28;20055;-65
2023/08/31 03:15:24;;;;;;;4.95;3.08;;;;;;;;;;5089207;28;20051;-64
2023/08/31 03:17:51;;;;;;;4.03;2.85;;;;;;;;;;5092364;28;20132;-65
2023/08/31 03:20:17;;;;;;;4.65;2.92;;;;;;;;;;5091916;28;20040;-66
2023/08/31 03:22:44;;;;;;;5.28;2.95;;;;;;;;;;5091546;28;20098;-65
2023/08/31 03:25:10;;;;;;;4.85;2.63;;;;;;;;;;5073684;28;20036;-65
2023/08/31 03:27:37;;;;;;;3.63;2.72;;;;;;;;;;5091324;28;20048;-65
2023/08/31 03:30:04;;;;;;;3.83;2.70;;;;;;;;;;5091516;28;20131;-66
2023/08/31 03:32:30;;;;;;;6.82;3.20;;;;;;;;;;5091444;28;20079;-65
2023/08/31 03:34:57;;;;;;;4.82;3.20;;;;;;;;;;5091505;28;20166;-65
2023/08/31 03:37:23;;;;;;;5.72;3.58;;;;;;;;;;5091345;28;20076;-66
2023/08/31 03:39:50;;;;;;;6.13;3.75;;;;;;;;;;5091763;28;20109;-65
2023/08/31 03:42:16;;;;;;;5.53;4.10;;;;;;;;;;5091177;28;20058;-65
2023/08/31 03:44:43;;;;;;;5.30;3.53;;;;;;;;;;5090980;28;20337;-66
2023/08/31 03:47:09;;;;;;;6.28;3.95;;;;;;;;;;5091360;28;20473;-67
2023/08/31 03:49:35;;;;;;;6.07;4.18;;;;;;;;;;5090832;28;20047;-66
2023/08/31 03:52:02;;;;;;;5.72;3.72;;;;;;;;;;5091129;28;20048;-65
2023/08/31 03:54:28;;;;;;;6.13;3.72;;;;;;;;;;5091207;28;20135;-66
2023/08/31 03:56:55;;;;;;;6.93;4.32;;;;;;;;;;5091338;28;20044;-65
2023/08/31 03:59:21;;;;;;;8.65;4.95;;;;;;;;;;5090959;28;20062;-66
2023/08/31 04:01:48;;;;;;;6.55;4.13;;;;;;;;;;5091449;28;20062;-67
2023/08/31 04:04:14;;;;;;;5.80;4.13;;;;;;;;;;5090704;28;20145;-68
2023/08/31 04:06:41;;;;;;;8.45;4.88;;;;;;;;;;5090888;28;20048;-67
2023/08/31 04:09:07;;;;;;;6.18;4.72;;;;;;;;;;5090453;28;20603;-67
2023/08/31 04:11:34;;;;;;;8.30;5.43;;;;;;;;;;5090837;28;20070;-68
2023/08/31 04:14:01;;;;;;;6.28;4.20;;;;;;;;;;5072675;28;20044;-68
2023/08/31 04:16:27;;;;;;;5.15;3.80;;;;;;;;;;5090744;28;20093;-67
2023/08/31 04:18:54;;;;;;;6.93;4.75;;;;;;;;;;5090527;28;20127;-68
2023/08/31 04:21:21;;;;;;;7.65;5.15;;;;;;;;;;5090672;28;20139;-66
2023/08/31 04:23:47;;;;;;;9.30;4.88;;;;;;;;;;5090694;28;20052;-67
2023/08/31 04:26:14;;;;;;;9.88;4.82;;;;;;;;;;5091460;28;20129;-67
2023/08/31 04:28:42;;;;;;;7.78;5.70;;;;;;;;;;5090547;28;20074;-67
2023/08/31 04:31:09;;;;;;;7.88;4.63;;;;;;;;;;5090638;28;20074;-69
2023/08/31 04:33:36;;;;;;;9.82;5.20;;;;;;;;;;5090326;28;20044;-67
2023/08/31 04:36:04;;;;;;;8.65;5.72;;;;;;;;;;5090299;28;20079;-67
2023/08/31 04:38:31;;;;;;;13.45;6.22;;;;;;;;;;5090113;28;20078;-67
2023/08/31 04:40:58;;;;;;;9.93;5.82;;;;;;;;;;5089946;28;20093;-66
2023/08/31 04:43:24;;;;;;;12.60;6.35;;;;;;;;;;5090365;28;20135;-67
2023/08/31 04:45:51;;;;;;;10.73;6.88;;;;;;;;;;5090412;28;20075;-66
2023/08/31 04:48:18;;;;;;;10.32;6.30;;;;;;;;;;5090174;28;20126;-66
2023/08/31 04:50:44;;;;;;;11.18;6.47;;;;;;;;;;5089899;28;20040;-67
2023/08/31 04:53:11;;;;;;;10.68;6.18;;;;;;;;;;5089935;28;20136;-67
2023/08/31 04:55:37;;;;;;;11.98;7.43;;;;;;;;;;5089637;28;20044;-67
2023/08/31 04:58:04;;;;;;;11.05;7.13;;;;;;;;;;5089735;28;20138;-67
2023/08/31 05:00:30;;;;;;;12.85;7.03;;;;;;;;;;5090110;28;20044;-66
2023/08/31 05:02:57;;;;;;;11.80;7.50;;;;;;;;;;5089600;28;20547;-67
2023/08/31 05:05:24;;;;;;;10.75;7.55;;;;;;;;;;5090155;28;20126;-66
2023/08/31 05:07:50;;;;;;;12.32;7.05;;;;;;;;;;5090711;28;20044;-66
2023/08/31 05:10:17;;;;;;;12.95;8.23;;;;;;;;;;5089851;28;20583;-66
2023/08/31 05:12:43;;;;;;;11.30;6.03;;;;;;;;;;5073260;28;20107;-67
2023/08/31 05:15:09;;;;;;;14.07;6.95;;;;;;;;;;5058691;28;20044;-67
2023/08/31 05:17:36;;;;;;;11.75;6.65;;;;;;;;;;5067603;28;20048;-66
2023/08/31 05:20:08;;;;;;;13.05;7.55;;;;;;;;;;5085682;28;20063;-67
2023/08/31 05:22:34;;;;;;;11.07;7.18;;;;;;;;;;5070000;28;20040;-66
2023/08/31 05:25:01;;;;;;;11.75;6.75;;;;;;;;;;5088130;28;20542;-67
2023/08/31 05:27:27;;;;;;;12.27;7.93;;;;;;;;;;5086527;28;20098;-67
2023/08/31 05:29:54;;;;;;;9.73;6.72;;;;;;;;;;5086642;28;20131;-67
2023/08/31 05:32:20;;;;;;;14.13;7.35;;;;;;;;;;5088120;28;20256;-66
2023/08/31 05:34:47;;;;;;;9.18;7.18;;;;;;;;;;5087216;28;20135;-67
2023/08/31 05:37:14;;;;;;;14.05;7.53;;;;;;;;;;5087512;28;20048;-66
2023/08/31 05:39:40;;;;;;;13.65;6.68;;;;;;;;;;5069119;28;20089;-66
2023/08/31 05:42:06;;;;;;;12.10;7.60;;;;;;;;;;5088316;28;20136;-67
2023/08/31 05:44:33;;;;;;;11.25;7.57;;;;;;;;;;5088991;28;20048;-67
2023/08/31 05:46:59;;;;;;;28.55;8.02;;;;;;;;;;5089050;28;20118;-66
2023/08/31 05:49:26;;;;;;;9.68;6.97;;;;;;;;;;5088783;28;20073;-66
2023/08/31 05:51:52;;;;;;;9.43;6.60;;;;;;;;;;5089147;28;20040;-65
2023/08/31 05:54:21;;;;;;;16.80;8.18;;;;;;;;;;5089280;28;20032;-67
2023/08/31 05:56:48;;;;;;;14.55;8.13;;;;;;;;;;5088685;28;20491;-66
2023/08/31 05:59:14;;;;;;;12.05;7.47;;;;;;;;;;5088860;28;20388;-67
2023/08/31 06:01:41;;;;;;;12.70;7.32;;;;;;;;;;5088555;28;20074;-66
2023/08/31 06:04:08;;;;;;;16.08;8.45;;;;;;;;;;5088282;28;20052;-66
2023/08/31 06:06:34;;;;;;;10.98;7.38;;;;;;;;;;5088359;28;20040;-66
2023/08/31 06:09:02;;;;;;;12.02;6.72;;;;;;;;;;5088484;28;20073;-66
2023/08/31 06:11:28;;;;;;;13.25;8.10;;;;;;;;;;5088816;28;20048;-66
2023/08/31 06:13:55;;;;;;;16.92;7.90;;;;;;;;;;5088576;28;20081;-66
2023/08/31 06:16:23;;;;;;;16.88;7.60;;;;;;;;;;5088973;28;20039;-66
2023/08/31 06:18:51;;;;;;;9.63;7.32;;;;;;;;;;5088849;28;20036;-66
2023/08/31 06:21:17;;;;;;;12.23;8.30;;;;;;;;;;5088566;28;20550;-67
2023/08/31 06:23:44;;;;;;;14.40;8.13;;;;;;;;;;5088503;28;20054;-67
2023/08/31 06:26:11;;;;;;;13.13;7.30;;;;;;;;;;5088370;28;20127;-66
2023/08/31 06:28:37;;;;;;;12.43;8.10;;;;;;;;;;5088286;28;20044;-66
2023/08/31 06:31:04;;;;;;;11.82;8.65;;;;;;;;;;5087990;28;20044;-67
2023/08/31 06:33:30;;;;;;;14.93;8.70;;;;;;;;;;5088303;28;20040;-66
2023/08/31 06:35:57;;;;;;;14.60;7.32;;;;;;;;;;5088320;28;20048;-66
2023/08/31 06:38:23;;;;;;;16.80;8.85;;;;;;;;;;5088366;28;20127;-65
2023/08/31 06:40:50;;;;;;;18.98;8.80;;;;;;;;;;5088706;28;20052;-65
2023/08/31 06:43:16;;;;;;;13.05;7.40;;;;;;;;;;5087830;28;20575;-65
2023/08/31 06:45:42;;;;;;;14.50;7.53;;;;;;;;;;5088319;28;20119;-66
2023/08/31 06:48:09;;;;;;;15.90;7.57;;;;;;;;;;5087710;28;20080;-66
2023/08/31 06:50:35;;;;;;;12.35;7.70;;;;;;;;;;5089773;28;20055;-65
2023/08/31 06:53:03;;;;;;;13.68;6.97;;;;;;;;;;5094518;28;20044;-65
2023/08/31 06:55:31;;;;;;;13.55;8.18;;;;;;;;;;5092529;28;20085;-65
2023/08/31 06:57:58;;;;;;;17.02;8.30;;;;;;;;;;5092558;28;20081;-66
2023/08/31 07:00:25;;;;;;;16.17;8.02;;;;;;;;;;5092774;28;20555;-65
2023/08/31 07:02:52;;;;;;;17.95;8.25;;;;;;;;;;5092167;28;20040;-65
2023/08/31 07:05:25;;;;;;;20.08;8.98;;;;;;;;;;5092111;28;20043;-66
2023/08/31 07:07:52;;;;;;;14.57;8.07;;;;;;;;;;5092034;28;20113;-65
2023/08/31 07:10:19;;;;;;;14.38;7.13;;;;;;;;;;5091986;28;20052;-64
2023/08/31 07:12:45;;;;;;;12.13;8.00;;;;;;;;;;5091821;28;20071;-67
2023/08/31 07:15:12;;;;;;;13.48;7.45;;;;;;;;;;5089889;28;20897;-64
2023/08/31 07:17:38;;;;;;;14.73;9.27;;;;;;;;;;5088849;28;20047;-64
2023/08/31 07:20:05;;;;;;;12.25;8.95;;;;;;;;;;5095352;28;20050;-63
2023/08/31 07:22:35;;;;;;;20.23;7.75;;;;;;;;;;5099174;28;20043;-64
2023/08/31 07:25:03;;;;;;;12.57;7.75;;;;;;;;;;5097700;28;20226;-64
2023/08/31 07:27:29;;;;;;;11.15;7.70;;;;;;;;;;5098420;28;20064;-64
2023/08/31 07:29:56;;;;;;;20.08;7.30;;;;;;;;;;5097228;28;21053;-64
2023/08/31 07:32:22;;;;;;;12.27;6.07;;;;;;;;;;5098965;28;20052;-63
2023/08/31 07:34:49;;;;;;;10.80;7.20;;;;;;;;;;5094101;28;20121;-63
2023/08/31 07:37:15;;;;;;;8.95;6.82;;;;;;;;;;5098540;28;20459;-64
2023/08/31 07:39:41;;;;;;;10.45;5.60;;;;;;;;;;5096690;28;20076;-65
2023/08/31 07:42:08;;;;;;;9.25;6.18;;;;;;;;;;5096797;28;20377;-65
2023/08/31 07:44:34;;;;;;;13.10;6.00;;;;;;;;;;5096160;28;20134;-64
2023/08/31 07:47:02;;;;;;;9.70;5.43;;;;;;;;;;5097653;28;20126;-65
2023/08/31 07:49:28;;;;;;;13.55;6.07;;;;;;;;;;5098622;28;20051;-63
2023/08/31 07:51:55;;;;;;;9.45;5.45;;;;;;;;;;5095190;28;20153;-63
2023/08/31 07:54:22;;;;;;;9.70;4.70;;;;;;;;;;5096616;28;20413;-64
2023/08/31 07:56:48;;;;;;;8.27;5.82;;;;;;;;;;5096871;28;20127;-64
2023/08/31 07:59:16;;;;;;;5.63;4.47;;;;;;;;;;5096858;28;20484;-65
2023/08/31 08:01:42;;;;;;;9.50;5.22;;;;;;;;;;5096125;28;20060;-65
2023/08/31 08:04:09;;;;;;;6.30;4.13;;;;;;;;;;5097674;28;20074;-64
2023/08/31 08:06:36;;;;;;;8.30;4.07;;;;;;;;;;5095484;28;20051;-64
2023/08/31 08:09:02;;;;;;;12.73;4.03;;;;;;;;;;5097655;28;20094;-65
2023/08/31 08:11:31;;;;;;;9.57;3.75;;;;;;;;;;5096618;28;20904;-65
2023/08/31 08:13:57;;;;;;;4.75;3.28;;;;;;;;;;5097374;28;20055;-64
2023/08/31 08:16:24;;;;;;;9.30;3.60;;;;;;;;;;5098383;28;20047;-65
2023/08/31 08:18:50;;;;;;;12.50;3.22;;;;;;;;;;5098627;28;20107;-65
2023/08/31 08:21:19;;;;;;;6.90;3.10;;;;;;;;;;5095262;28;20051;-65
2023/08/31 08:23:46;;;;;;;7.50;3.50;;;;;;;;;;5095839;28;20055;-66
2023/08/31 08:26:12;;;;;;;6.15;2.85;;;;;;;;;;5096813;28;20383;-65
2023/08/31 08:28:39;;;;;;;11.75;3.20;;;;;;;;;;5096637;28;20498;-67
2023/08/31 08:31:05;;;;;;;5.68;2.58;;;;;;;;;;5095768;28;20113;-66
2023/08/31 08:33:32;;;;;;;7.25;2.78;;;;;;;;;;5096083;28;20375;-65
2023/08/31 08:35:58;;;;;;;4.55;2.40;;;;;;;;;;5095365;28;20568;-65
2023/08/31 08:38:25;;;;;;;4.18;2.08;;;;;;;;;;5096187;28;20079;-65
2023/08/31 08:40:52;;;;;;;6.15;2.10;;;;;;;;;;5091924;28;20446;-64
2023/08/31 08:43:23;;;;;;;5.38;2.00;;;;;;;;;;5094808;28;20048;-66
2023/08/31 08:45:50;;;;;;;8.35;1.90;;;;;;;;;;5096369;28;20040;-66
2023/08/31 08:48:17;;;;;;;5.53;1.88;;;;;;;;;;5096050;28;20084;-65
2023/08/31 08:50:44;;;;;;;5.00;1.90;;;;;;;;;;5096266;28;20108;-64
2023/08/31 08:53:11;;;;;;;5.05;2.20;;;;;;;;;;5095958;28;20396;-65
2023/08/31 08:55:37;;;;;;;7.28;2.22;;;;;;;;;;5093336;28;20068;-65
2023/08/31 08:58:04;;;;;;;6.68;2.42;;;;;;;;;;5097202;28;20134;-65
2023/08/31 09:00:31;;;;;;;3.60;1.75;;;;;;;;;;5095242;28;20131;-66
2023/08/31 09:02:58;;;;;;;9.88;2.03;;;;;;;;;;5096874;28;20063;-65
2023/08/31 09:05:24;;;;;;;12.52;3.40;;;;;;;;;;5094059;28;20487;-65
2023/08/31 09:08:03;;;;;;;6.75;1.52;;;;;;;;;;5096348;28;20047;-66
2023/08/31 09:10:35;;;;;;;6.97;1.98;;;;;;;;;;5094174;28;20186;-67
2023/08/31 09:13:04;;;;;;;9.52;2.10;;;;;;;;;;5095853;28;20545;-66
2023/08/31 09:15:41;;;;;;;5.25;1.40;;;;;;;;;;5092119;28;20126;-65
2023/08/31 09:18:15;;;;;;;10.23;1.63;;;;;;;;;;5093123;28;20415;-66
2023/08/31 09:20:45;;;;;;;3.00;1.55;;;;;;;;;;5091478;28;20135;-67
2023/08/31 09:23:12;;;;;;;3.03;1.80;;;;;;;;;;5092539;28;20032;-67
2023/08/31 09:25:48;;;;;;;7.78;2.15;;;;;;;;;;5075192;28;20306;-66
2023/08/31 09:28:15;;;;;;;3.35;1.13;;;;;;;;;;5093619;28;20704;-67
2023/08/31 09:30:42;;;;;;;10.25;1.60;;;;;;;;;;5094818;28;20128;-66
2023/08/31 09:33:09;;;;;;;8.40;1.50;;;;;;;;;;5092090;28;20040;-66
2023/08/31 09:35:43;;;;;;;4.32;1.40;;;;;;;;;;5089079;28;20799;-68
2023/08/31 09:38:09;;;;;;;10.00;1.85;;;;;;;;;;5092126;28;20085;-65
2023/08/31 09:40:38;;;;;;;2.50;1.10;;;;;;;;;;5091694;28;20044;-67
2023/08/31 09:43:04;;;;;;;5.25;1.20;;;;;;;;;;5092160;28;20055;-65
2023/08/31 09:45:32;;;;;;;5.18;1.38;;;;;;;;;;5093754;28;20132;-67
2023/08/31 09:48:11;;;;;;;3.80;1.45;;;;;;;;;;5087135;28;20058;-67
2023/08/31 09:50:38;;;;;;;3.90;1.35;;;;;;;;;;5085181;28;20412;-68
2023/08/31 09:53:05;;;;;;;8.63;1.30;;;;;;;;;;5088325;28;20468;-65
2023/08/31 09:55:32;;;;;;;10.77;1.45;;;;;;;;;;5108796;28;20119;-66
2023/08/31 09:57:59;;;;;;;3.20;1.27;;;;;;;;;;5105856;28;20084;-68
2023/08/31 10:00:41;;;;;;;4.05;1.10;;;;;;;;;;5108592;28;20136;-64
2023/08/31 10:03:08;;;;;;;4.40;1.67;;;;;;;;;;5102985;28;20138;-66
2023/08/31 10:05:35;;;;;;;5.00;1.50;;;;;;;;;;5099505;28;20407;-65
2023/08/31 10:08:02;;;;;;;10.82;2.80;;;;;;;;;;5088873;28;20089;-68
2023/08/31 10:10:29;;;;;;;7.32;2.08;;;;;;;;;;5088931;28;20372;-66
2023/08/31 10:12:56;;;;;;;6.28;1.90;;;;;;;;;;5087864;28;20071;-65
2023/08/31 10:15:26;;;;;;;6.88;2.20;;;;;;;;;;5088476;28;20369;-65
2023/08/31 10:17:52;;;;;;;9.05;2.60;;;;;;;;;;5088661;28;20472;-67
2023/08/31 10:20:19;;;;;;;6.25;1.80;;;;;;;;;;5088949;28;20093;-65
2023/08/31 10:22:45;;;;;;;7.13;1.95;;;;;;;;;;5087108;28;20127;-68
2023/08/31 10:25:11;;;;;;;5.28;2.60;;;;;;;;;;5089065;28;20130;-68
2023/08/31 10:27:39;;;;;;;13.48;4.60;;;;;;;;;;5075086;28;20117;-67
2023/08/31 10:30:28;;;;;;;6.07;2.90;;;;;;;;;;5077297;28;20650;-69
